createdAt,value
2022-09-11T00:00:13.899Z,3.20
2022-09-11T00:01:14.106Z,5.90
2022-09-11T00:02:14.362Z,3.90
2022-09-11T00:03:14.476Z,3.80
2022-09-11T00:04:14.632Z,2.30
2022-09-11T00:05:14.788Z,4.60
2022-09-11T00:06:20.525Z,3.90
2022-09-11T00:07:16.129Z,3.30
2022-09-11T00:08:15.329Z,3.70
2022-09-11T00:09:15.499Z,4.90
2022-09-11T00:10:15.679Z,2.20
2022-09-11T00:11:15.830Z,2.30
2022-09-11T00:12:16.029Z,2.10
2022-09-11T00:13:16.200Z,3.90
2022-09-11T00:14:16.363Z,3.50
2022-09-11T00:15:16.518Z,2.40
2022-09-11T00:16:16.746Z,4.40
2022-09-11T00:17:16.859Z,2.50
2022-09-11T00:18:17.029Z,3.40
2022-09-11T00:19:17.195Z,3.90
2022-09-11T00:20:17.349Z,2.50
2022-09-11T00:21:17.510Z,2.60
2022-09-11T00:22:17.671Z,2.70
2022-09-11T00:23:17.839Z,4.60
2022-09-11T00:24:18.000Z,3.20
2022-09-11T00:25:18.163Z,3.30
2022-09-11T00:26:18.319Z,2.50
2022-09-11T00:27:18.479Z,6.20
2022-09-11T00:28:18.659Z,5.50
2022-09-11T00:29:18.818Z,4.20
2022-09-11T00:30:19.009Z,6.60
2022-09-11T00:31:19.191Z,3.20
2022-09-11T00:32:19.359Z,2.40
2022-09-11T00:33:19.562Z,6.40
2022-09-11T00:34:19.697Z,2.80
2022-09-11T00:35:19.863Z,4.50
2022-09-11T00:36:20.020Z,4.40
2022-09-11T00:37:20.182Z,2.30
2022-09-11T00:38:20.360Z,3.40
2022-09-11T00:39:20.528Z,3.30
2022-09-11T00:40:20.692Z,4.50
2022-09-11T00:41:20.849Z,4.20
2022-09-11T00:42:21.051Z,2.50
2022-09-11T00:43:21.239Z,5.70
2022-09-11T00:44:21.400Z,6.10
2022-09-11T00:45:21.562Z,4.40
2022-09-11T00:46:21.731Z,3.20
2022-09-11T00:47:21.888Z,4.90
2022-09-11T00:48:22.073Z,6.50
2022-09-11T00:49:22.230Z,6.10
2022-09-11T00:50:22.421Z,4.30
2022-09-11T00:51:22.582Z,4.60
2022-09-11T00:52:22.782Z,3.00
2022-09-11T00:53:22.950Z,2.50
2022-09-11T00:54:23.118Z,4.30
2022-09-11T00:55:23.270Z,4.00
2022-09-11T00:56:23.430Z,4.10
2022-09-11T00:57:23.591Z,3.20
2022-09-11T00:58:23.774Z,3.80
2022-09-11T00:59:23.937Z,3.50
2022-09-11T01:00:24.093Z,6.60
2022-09-11T01:01:24.258Z,4.10
2022-09-11T01:02:27.436Z,3.80
2022-09-11T01:03:24.590Z,3.70
2022-09-11T01:04:24.773Z,4.50
2022-09-11T01:05:24.937Z,4.60
2022-09-11T01:06:25.092Z,4.70
2022-09-11T01:07:25.250Z,3.60
2022-09-11T01:08:25.431Z,2.70
2022-09-11T01:09:25.600Z,3.50
2022-09-11T01:10:25.768Z,2.70
2022-09-11T01:11:25.926Z,2.60
2022-09-11T01:12:26.080Z,3.00
2022-09-11T01:13:26.270Z,2.60
2022-09-11T01:14:26.431Z,5.30
2022-09-11T01:15:26.592Z,2.90
2022-09-11T01:16:26.788Z,3.70
2022-09-11T01:17:26.920Z,2.50
2022-09-11T01:18:27.140Z,3.40
2022-09-11T01:19:27.300Z,3.20
2022-09-11T01:20:27.461Z,3.90
2022-09-11T01:21:31.266Z,2.50
2022-09-11T01:22:28.800Z,2.80
2022-09-11T01:23:28.000Z,4.40
2022-09-11T01:24:28.171Z,2.70
2022-09-11T01:25:28.332Z,2.60
2022-09-11T01:26:28.520Z,2.60
2022-09-11T01:27:28.671Z,2.10
2022-09-11T01:28:28.881Z,2.60
2022-09-11T01:29:29.041Z,5.00
2022-09-11T01:30:29.250Z,3.10
2022-09-11T01:31:29.442Z,4.40
2022-09-11T01:32:29.563Z,2.20
2022-09-11T01:33:29.739Z,1.50
2022-09-11T01:34:29.891Z,2.70
2022-09-11T01:35:30.051Z,4.50
2022-09-11T01:36:30.211Z,6.00
2022-09-11T01:37:30.371Z,2.00
2022-09-11T01:38:30.582Z,2.70
2022-09-11T01:39:30.745Z,4.10
2022-09-11T01:40:30.931Z,5.50
2022-09-11T01:41:31.090Z,2.60
2022-09-11T01:42:31.283Z,3.00
2022-09-11T01:43:31.461Z,3.00
2022-09-11T01:44:31.622Z,2.30
2022-09-11T01:45:31.810Z,3.00
2022-09-11T01:46:31.971Z,4.00
2022-09-11T01:47:32.140Z,3.60
2022-09-11T01:48:32.312Z,2.40
2022-09-11T01:49:32.472Z,2.40
2022-09-11T01:50:32.661Z,2.50
2022-09-11T01:51:32.811Z,2.20
2022-09-11T01:52:32.983Z,3.60
2022-09-11T01:53:33.200Z,4.70
2022-09-11T01:54:33.322Z,4.60
2022-09-11T01:55:33.481Z,2.00
2022-09-11T01:56:33.652Z,6.90
2022-09-11T01:57:33.811Z,3.70
2022-09-11T01:58:33.992Z,2.00
2022-09-11T01:59:34.151Z,3.20
2022-09-11T02:00:34.386Z,3.20
2022-09-11T02:01:34.492Z,6.10
2022-09-11T02:02:34.663Z,4.20
2022-09-11T02:03:34.832Z,5.20
2022-09-11T02:04:35.008Z,3.80
2022-09-11T02:05:35.161Z,9.00
2022-09-11T02:06:35.322Z,1.70
2022-09-11T02:07:35.482Z,2.50
2022-09-11T02:08:35.662Z,3.20
2022-09-11T02:09:35.824Z,3.00
2022-09-11T02:10:35.982Z,2.10
2022-09-11T02:11:36.145Z,6.40
2022-09-11T02:12:36.342Z,4.10
2022-09-11T02:13:36.532Z,2.30
2022-09-11T02:14:36.693Z,3.20
2022-09-11T02:15:36.851Z,5.10
2022-09-11T02:16:37.097Z,3.80
2022-09-11T02:17:37.202Z,2.00
2022-09-11T02:18:37.382Z,2.20
2022-09-11T02:19:37.542Z,4.00
2022-09-11T02:20:37.740Z,4.00
2022-09-11T02:21:37.898Z,4.00
2022-09-11T02:22:38.081Z,3.00
2022-09-11T02:23:38.305Z,2.90
2022-09-11T02:24:38.411Z,3.10
2022-09-11T02:25:38.572Z,3.90
2022-09-11T02:26:38.772Z,3.30
2022-09-11T02:27:38.942Z,2.10
2022-09-11T02:28:39.110Z,2.40
2022-09-11T02:29:39.262Z,3.90
2022-09-11T02:30:39.462Z,3.00
2022-09-11T02:31:39.660Z,3.40
2022-09-11T02:32:39.812Z,2.70
2022-09-11T02:33:40.003Z,3.00
2022-09-11T02:34:40.132Z,3.40
2022-09-11T02:35:40.303Z,2.20
2022-09-11T02:36:40.471Z,2.60
2022-09-11T02:37:40.643Z,3.50
2022-09-11T02:38:40.813Z,1.60
2022-09-11T02:39:41.005Z,2.20
2022-09-11T02:40:41.149Z,3.00
2022-09-11T02:41:41.293Z,2.50
2022-09-11T02:42:41.561Z,4.00
2022-09-11T02:43:41.746Z,2.80
2022-09-11T02:44:41.823Z,4.40
2022-09-11T02:45:42.025Z,3.60
2022-09-11T02:46:42.153Z,1.80
2022-09-11T02:47:42.322Z,4.20
2022-09-11T02:48:42.493Z,2.50
2022-09-11T02:49:42.650Z,2.10
2022-09-11T02:50:42.842Z,4.10
2022-09-11T02:51:43.002Z,2.70
2022-09-11T02:52:43.183Z,4.60
2022-09-11T02:53:43.491Z,3.00
2022-09-11T02:54:43.533Z,2.00
2022-09-11T02:55:43.692Z,1.90
2022-09-11T02:56:43.892Z,3.60
2022-09-11T02:57:44.128Z,2.20
2022-09-11T02:58:44.243Z,2.00
2022-09-11T02:59:44.403Z,2.50
2022-09-11T03:00:44.595Z,2.70
2022-09-11T03:01:44.758Z,4.60
2022-09-11T03:02:44.923Z,3.00
2022-09-11T03:03:46.091Z,3.80
2022-09-11T03:04:45.274Z,4.10
2022-09-11T03:05:45.432Z,2.90
2022-09-11T03:06:45.593Z,2.60
2022-09-11T03:07:45.776Z,3.80
2022-09-11T03:08:45.934Z,4.50
2022-09-11T03:09:46.092Z,3.00
2022-09-11T03:10:46.263Z,4.00
2022-09-11T03:11:46.421Z,2.90
2022-09-11T03:12:46.593Z,4.90
2022-09-11T03:13:46.753Z,3.20
2022-09-11T03:14:46.943Z,3.40
2022-09-11T03:15:47.103Z,1.90
2022-09-11T03:16:47.304Z,2.70
2022-09-11T03:17:47.482Z,3.50
2022-09-11T03:18:47.644Z,2.20
2022-09-11T03:19:47.803Z,3.30
2022-09-11T03:20:47.971Z,3.60
2022-09-11T03:21:48.124Z,2.00
2022-09-11T03:22:48.333Z,0.90
2022-09-11T03:23:48.542Z,3.20
2022-09-11T03:24:48.672Z,7.10
2022-09-11T03:25:48.824Z,2.20
2022-09-11T03:26:48.994Z,2.70
2022-09-11T03:27:49.193Z,3.70
2022-09-11T03:28:49.324Z,1.90
2022-09-11T03:29:49.492Z,2.60
2022-09-11T03:30:49.658Z,1.70
2022-09-11T03:31:49.854Z,1.70
2022-09-11T03:32:49.991Z,2.60
2022-09-11T03:33:50.153Z,1.40
2022-09-11T03:34:50.324Z,2.20
2022-09-11T03:35:50.483Z,2.00
2022-09-11T03:36:50.673Z,1.30
2022-09-11T03:37:50.846Z,2.00
2022-09-11T03:38:51.004Z,1.70
2022-09-11T03:39:51.177Z,2.20
2022-09-11T03:40:51.323Z,2.70
2022-09-11T03:41:51.485Z,3.30
2022-09-11T03:42:51.665Z,1.20
2022-09-11T03:43:51.824Z,2.50
2022-09-11T03:44:51.983Z,2.50
2022-09-11T03:45:52.177Z,2.50
2022-09-11T03:46:52.343Z,1.90
2022-09-11T03:47:52.524Z,2.40
2022-09-11T03:48:52.715Z,4.40
2022-09-11T03:49:52.864Z,2.70
2022-09-11T03:50:53.072Z,2.90
2022-09-11T03:51:53.233Z,2.80
2022-09-11T03:52:53.424Z,2.10
2022-09-11T03:53:53.544Z,2.90
2022-09-11T03:54:53.734Z,2.90
2022-09-11T03:55:53.903Z,3.60
2022-09-11T03:56:54.064Z,3.80
2022-09-11T03:57:54.223Z,4.80
2022-09-11T03:58:54.392Z,3.40
2022-09-11T03:59:54.544Z,3.20
2022-09-11T04:00:54.769Z,3.10
2022-09-11T04:01:54.984Z,4.10
2022-09-11T04:02:55.103Z,5.50
2022-09-11T04:03:55.265Z,4.80
2022-09-11T04:04:55.472Z,7.70
2022-09-11T04:05:55.624Z,5.30
2022-09-11T04:06:55.788Z,10.90
2022-09-11T04:07:55.963Z,10.10
2022-09-11T04:08:56.134Z,7.10
2022-09-11T04:09:56.296Z,6.40
2022-09-11T04:10:56.455Z,5.90
2022-09-11T04:11:56.614Z,8.60
2022-09-11T04:12:56.803Z,6.80
2022-09-11T04:13:56.954Z,5.80
2022-09-11T04:14:57.155Z,9.80
2022-09-11T04:15:57.304Z,7.70
2022-09-11T04:16:57.501Z,8.80
2022-09-11T04:18:00.083Z,7.30
2022-09-11T04:18:58.875Z,7.60
2022-09-11T04:19:58.015Z,9.40
2022-09-11T04:20:58.175Z,10.20
2022-09-11T04:21:58.351Z,14.00
2022-09-11T04:22:58.537Z,8.20
2022-09-11T04:23:58.694Z,7.60
2022-09-11T04:24:58.884Z,8.10
2022-09-11T04:25:59.065Z,7.50
2022-09-11T04:27:00.853Z,8.70
2022-09-11T04:27:59.442Z,11.50
2022-09-11T04:28:59.584Z,8.80
2022-09-11T04:29:59.777Z,7.90
2022-09-11T04:30:59.948Z,7.60
2022-09-11T04:32:00.129Z,6.80
2022-09-11T04:33:00.314Z,8.90
2022-09-11T04:34:00.469Z,6.90
2022-09-11T04:35:00.644Z,7.20
2022-09-11T04:36:00.825Z,6.20
2022-09-11T04:37:01.004Z,5.70
2022-09-11T04:38:01.197Z,3.90
2022-09-11T04:39:01.374Z,5.00
2022-09-11T04:40:01.633Z,4.70
2022-09-11T04:41:01.736Z,4.90
2022-09-11T04:42:01.927Z,4.90
2022-09-11T04:43:02.098Z,4.00
2022-09-11T04:44:05.214Z,7.30
2022-09-11T04:45:02.452Z,4.70
2022-09-11T04:46:02.656Z,6.30
2022-09-11T04:47:02.798Z,5.60
2022-09-11T04:48:02.974Z,6.20
2022-09-11T04:49:03.115Z,3.90
2022-09-11T04:50:03.299Z,7.30
2022-09-11T04:51:03.424Z,6.80
2022-09-11T04:52:03.605Z,5.60
2022-09-11T04:53:03.815Z,4.80
2022-09-11T04:54:03.965Z,5.00
2022-09-11T04:55:04.114Z,4.70
2022-09-11T04:56:04.294Z,4.80
2022-09-11T04:57:04.484Z,6.50
2022-09-11T04:58:04.705Z,4.10
2022-09-11T04:59:04.864Z,4.20
2022-09-11T05:00:05.022Z,5.60
2022-09-11T05:01:05.242Z,3.30
2022-09-11T05:02:05.399Z,4.00
2022-09-11T05:03:05.574Z,3.20
2022-09-11T05:04:05.753Z,4.50
2022-09-11T05:05:05.936Z,5.10
2022-09-11T05:06:06.127Z,5.10
2022-09-11T05:07:06.304Z,8.70
2022-09-11T05:08:06.495Z,5.30
2022-09-11T05:09:06.705Z,4.50
2022-09-11T05:10:06.886Z,5.10
2022-09-11T05:11:07.026Z,6.10
2022-09-11T05:12:07.207Z,6.10
2022-09-11T05:13:07.405Z,5.40
2022-09-11T05:14:07.586Z,8.00
2022-09-11T05:15:07.768Z,6.00
2022-09-11T05:16:08.002Z,7.50
2022-09-11T05:17:08.126Z,6.70
2022-09-11T05:18:08.334Z,7.00
2022-09-11T05:19:08.475Z,6.90
2022-09-11T05:20:11.782Z,7.40
2022-09-11T05:21:08.825Z,7.20
2022-09-11T05:22:08.989Z,6.80
2022-09-11T05:23:09.184Z,5.80
2022-09-11T05:24:09.345Z,9.50
2022-09-11T05:25:09.505Z,10.50
2022-09-11T05:26:09.675Z,6.80
2022-09-11T05:27:09.838Z,9.30
2022-09-11T05:28:10.035Z,12.20
2022-09-11T05:29:10.189Z,7.20
2022-09-11T05:30:10.368Z,14.30
2022-09-11T05:31:10.523Z,8.40
2022-09-11T05:32:10.718Z,6.80
2022-09-11T05:33:10.864Z,9.60
2022-09-11T05:34:11.049Z,8.60
2022-09-11T05:35:11.225Z,7.40
2022-09-11T05:36:11.416Z,9.60
2022-09-11T05:37:11.608Z,8.70
2022-09-11T05:38:11.756Z,9.80
2022-09-11T05:39:11.945Z,9.30
2022-09-11T05:40:12.155Z,8.80
2022-09-11T05:41:12.295Z,9.00
2022-09-11T05:42:12.496Z,8.10
2022-09-11T05:43:12.640Z,9.30
2022-09-11T05:44:12.825Z,7.80
2022-09-11T05:45:12.976Z,9.70
2022-09-11T05:46:13.157Z,7.30
2022-09-11T05:47:13.421Z,10.50
2022-09-11T05:48:13.525Z,9.00
2022-09-11T05:49:13.695Z,9.70
2022-09-11T05:50:13.875Z,11.60
2022-09-11T05:51:14.038Z,9.30
2022-09-11T05:52:14.236Z,10.10
2022-09-11T05:53:14.427Z,9.40
2022-09-11T05:54:14.567Z,9.50
2022-09-11T05:55:14.746Z,9.00
2022-09-11T05:56:14.927Z,10.80
2022-09-11T05:57:15.096Z,13.40
2022-09-11T05:58:15.267Z,11.70
2022-09-11T05:59:15.426Z,12.00
2022-09-11T06:00:15.618Z,11.80
2022-09-11T06:01:15.831Z,10.00
2022-09-11T06:02:16.031Z,14.90
2022-09-11T06:03:16.126Z,11.80
2022-09-11T06:04:16.318Z,13.20
2022-09-11T06:05:16.507Z,13.10
2022-09-11T06:06:16.704Z,17.60
2022-09-11T06:07:16.876Z,10.10
2022-09-11T06:08:17.036Z,14.30
2022-09-11T06:09:17.197Z,12.40
2022-09-11T06:10:17.356Z,12.80
2022-09-11T06:11:17.547Z,12.40
2022-09-11T06:12:17.719Z,14.00
2022-09-11T06:13:17.899Z,14.30
2022-09-11T06:14:18.047Z,10.90
2022-09-11T06:15:42.807Z,11.40
2022-09-11T06:16:19.419Z,13.20
2022-09-11T06:17:18.555Z,13.80
2022-09-11T06:18:18.715Z,10.80
2022-09-11T06:19:18.867Z,13.50
2022-09-11T06:20:19.049Z,14.40
2022-09-11T06:21:19.217Z,13.00
2022-09-11T06:22:19.377Z,13.60
2022-09-11T06:23:19.537Z,14.60
2022-09-11T06:24:19.700Z,15.40
2022-09-11T06:25:19.855Z,15.30
2022-09-11T06:26:20.060Z,14.10
2022-09-11T06:27:20.220Z,15.00
2022-09-11T06:28:20.408Z,11.60
2022-09-11T06:29:20.568Z,13.90
2022-09-11T06:30:20.799Z,13.90
2022-09-11T06:31:20.937Z,14.50
2022-09-11T06:32:21.103Z,15.60
2022-09-11T06:33:21.288Z,14.40
2022-09-11T06:34:21.481Z,14.50
2022-09-11T06:35:21.638Z,12.90
2022-09-11T06:36:21.838Z,14.60
2022-09-11T06:37:21.996Z,14.00
2022-09-11T06:38:22.192Z,13.60
2022-09-11T06:39:22.338Z,14.40
2022-09-11T06:40:22.528Z,15.70
2022-09-11T06:41:22.741Z,14.70
2022-09-11T06:42:22.898Z,14.70
2022-09-11T06:43:23.059Z,20.60
2022-09-11T06:44:23.218Z,17.00
2022-09-11T06:45:23.379Z,11.10
2022-09-11T06:46:23.558Z,15.90
2022-09-11T06:47:23.716Z,19.80
2022-09-11T06:48:23.878Z,13.30
2022-09-11T06:49:24.039Z,16.70
2022-09-11T06:50:24.226Z,12.60
2022-09-11T06:51:24.398Z,16.20
2022-09-11T06:52:24.561Z,18.50
2022-09-11T06:53:24.719Z,13.50
2022-09-11T06:54:24.879Z,15.40
2022-09-11T06:55:25.037Z,14.80
2022-09-11T06:56:25.211Z,15.30
2022-09-11T06:57:25.359Z,13.00
2022-09-11T06:58:25.551Z,18.70
2022-09-11T06:59:25.709Z,15.60
2022-09-11T07:00:25.922Z,16.10
2022-09-11T07:01:26.203Z,13.30
2022-09-11T07:02:26.226Z,15.40
2022-09-11T07:03:26.391Z,18.40
2022-09-11T07:04:26.549Z,15.40
2022-09-11T07:05:26.713Z,16.80
2022-09-11T07:06:26.920Z,14.10
2022-09-11T07:07:27.069Z,16.20
2022-09-11T07:08:27.271Z,16.50
2022-09-11T07:09:27.429Z,15.80
2022-09-11T07:10:27.621Z,16.10
2022-09-11T07:11:27.796Z,18.10
2022-09-11T07:12:27.958Z,12.40
2022-09-11T07:13:28.120Z,14.10
2022-09-11T07:14:28.280Z,11.20
2022-09-11T07:15:28.439Z,17.30
2022-09-11T07:16:28.669Z,12.30
2022-09-11T07:17:28.782Z,13.20
2022-09-11T07:18:28.940Z,13.10
2022-09-11T07:19:29.130Z,11.90
2022-09-11T07:20:29.304Z,14.60
2022-09-11T07:21:29.470Z,12.10
2022-09-11T07:22:29.634Z,11.10
2022-09-11T07:23:29.791Z,10.80
2022-09-11T07:24:29.981Z,10.50
2022-09-11T07:25:30.141Z,9.60
2022-09-11T07:26:30.321Z,14.40
2022-09-11T07:27:30.480Z,14.00
2022-09-11T07:28:30.675Z,11.60
2022-09-11T07:29:30.861Z,11.60
2022-09-11T07:30:31.077Z,11.80
2022-09-11T07:31:31.192Z,8.90
2022-09-11T07:32:31.371Z,8.30
2022-09-11T07:33:31.552Z,10.30
2022-09-11T07:34:31.741Z,12.00
2022-09-11T07:35:31.900Z,9.80
2022-09-11T07:36:32.093Z,12.50
2022-09-11T07:37:32.241Z,10.60
2022-09-11T07:38:32.439Z,10.90
2022-09-11T07:39:32.622Z,9.80
2022-09-11T07:40:32.778Z,8.20
2022-09-11T07:41:32.921Z,9.90
2022-09-11T07:42:33.102Z,9.40
2022-09-11T07:43:33.297Z,9.30
2022-09-11T07:44:33.462Z,9.50
2022-09-11T07:45:33.686Z,8.30
2022-09-11T07:46:33.812Z,8.10
2022-09-11T07:47:33.994Z,7.00
2022-09-11T07:48:34.193Z,8.60
2022-09-11T07:49:34.363Z,7.70
2022-09-11T07:50:34.561Z,9.40
2022-09-11T07:51:34.702Z,12.60
2022-09-11T07:52:34.892Z,16.00
2022-09-11T07:53:35.052Z,8.80
2022-09-11T07:54:35.232Z,8.30
2022-09-11T07:55:35.422Z,10.70
2022-09-11T07:56:35.595Z,9.40
2022-09-11T07:57:35.732Z,11.00
2022-09-11T07:58:35.923Z,14.30
2022-09-11T07:59:36.083Z,10.30
2022-09-11T08:00:37.203Z,9.10
2022-09-11T08:01:36.496Z,11.20
2022-09-11T08:02:36.651Z,8.90
2022-09-11T08:03:36.793Z,8.80
2022-09-11T08:04:36.963Z,10.80
2022-09-11T08:05:37.153Z,10.90
2022-09-11T08:06:37.333Z,10.40
2022-09-11T08:07:37.493Z,12.10
2022-09-11T08:08:37.683Z,10.40
2022-09-11T08:09:37.862Z,10.80
2022-09-11T08:10:38.055Z,11.50
2022-09-11T08:11:38.223Z,10.30
2022-09-11T08:12:38.392Z,12.90
2022-09-11T08:13:38.590Z,13.20
2022-09-11T08:14:38.746Z,11.70
2022-09-11T08:15:38.933Z,10.90
2022-09-11T08:16:39.135Z,14.20
2022-09-11T08:17:39.283Z,9.90
2022-09-11T08:18:39.445Z,10.10
2022-09-11T08:19:39.645Z,12.50
2022-09-11T08:20:39.806Z,12.80
2022-09-11T08:21:39.952Z,10.20
2022-09-11T08:22:40.115Z,9.00
2022-09-11T08:23:40.285Z,11.20
2022-09-11T08:24:40.471Z,9.70
2022-09-11T08:25:40.606Z,12.30
2022-09-11T08:26:40.793Z,12.10
2022-09-11T08:27:40.945Z,7.90
2022-09-11T08:28:41.107Z,8.70
2022-09-11T08:29:41.287Z,9.60
2022-09-11T08:30:41.436Z,9.20
2022-09-11T08:31:41.617Z,11.40
2022-09-11T08:32:41.777Z,9.10
2022-09-11T08:33:42.167Z,7.30
2022-09-11T08:34:42.158Z,10.00
2022-09-11T08:35:42.309Z,8.70
2022-09-11T08:36:42.487Z,8.30
2022-09-11T08:37:42.668Z,9.00
2022-09-11T08:38:42.848Z,10.50
2022-09-11T08:39:43.107Z,8.20
2022-09-11T08:40:43.207Z,8.50
2022-09-11T08:41:43.387Z,9.00
2022-09-11T08:42:43.566Z,8.00
2022-09-11T08:43:43.871Z,11.10
2022-09-11T08:44:43.918Z,10.50
2022-09-11T08:45:44.107Z,10.30
2022-09-11T08:46:44.238Z,10.30
2022-09-11T08:47:44.397Z,10.10
2022-09-11T08:48:44.555Z,8.40
2022-09-11T08:49:44.749Z,8.20
2022-09-11T08:50:44.900Z,8.70
2022-09-11T08:51:45.078Z,7.50
2022-09-11T08:52:45.258Z,9.50
2022-09-11T08:53:45.449Z,11.90
2022-09-11T08:54:45.619Z,10.20
2022-09-11T08:55:45.775Z,9.30
2022-09-11T08:56:45.949Z,10.50
2022-09-11T08:57:46.119Z,10.90
2022-09-11T08:58:46.289Z,8.70
2022-09-11T08:59:46.470Z,10.50
2022-09-11T09:00:46.641Z,11.90
2022-09-11T09:01:46.872Z,12.90
2022-09-11T09:02:47.003Z,12.80
2022-09-11T09:03:47.179Z,11.80
2022-09-11T09:04:47.369Z,11.80
2022-09-11T09:05:47.520Z,10.80
2022-09-11T09:06:47.700Z,11.60
2022-09-11T09:07:47.860Z,9.00
2022-09-11T09:08:48.040Z,9.00
2022-09-11T09:09:48.242Z,10.70
2022-09-11T09:10:48.381Z,9.10
2022-09-11T09:11:48.575Z,10.20
2022-09-11T09:12:48.751Z,10.50
2022-09-11T09:13:48.939Z,9.10
2022-09-11T09:14:49.121Z,7.40
2022-09-11T09:15:49.313Z,8.70
2022-09-11T09:16:49.433Z,11.90
2022-09-11T09:17:49.633Z,6.60
2022-09-11T09:18:49.813Z,7.80
2022-09-11T09:19:50.014Z,8.20
2022-09-11T09:20:50.153Z,5.90
2022-09-11T09:21:50.323Z,8.90
2022-09-11T09:22:50.513Z,8.60
2022-09-11T09:23:50.693Z,6.40
2022-09-11T09:24:50.885Z,6.80
2022-09-11T09:25:51.052Z,10.00
2022-09-11T09:26:51.224Z,8.40
2022-09-11T09:27:51.405Z,5.70
2022-09-11T09:28:51.574Z,7.10
2022-09-11T09:29:51.774Z,7.70
2022-09-11T09:30:51.938Z,9.50
2022-09-11T09:31:52.105Z,6.50
2022-09-11T09:32:52.275Z,8.00
2022-09-11T09:33:52.483Z,6.70
2022-09-11T09:34:52.635Z,9.30
2022-09-11T09:35:52.806Z,8.00
2022-09-11T09:36:52.964Z,6.10
2022-09-11T09:37:53.135Z,8.40
2022-09-11T09:38:53.295Z,8.50
2022-09-11T09:39:53.507Z,9.10
2022-09-11T09:40:53.646Z,6.50
2022-09-11T09:41:53.836Z,9.70
2022-09-11T09:42:54.015Z,8.00
2022-09-11T09:43:54.176Z,11.30
2022-09-11T09:44:54.367Z,7.50
2022-09-11T09:45:54.563Z,6.90
2022-09-11T09:46:54.696Z,6.00
2022-09-11T09:47:54.867Z,10.00
2022-09-11T09:48:55.046Z,7.10
2022-09-11T09:49:55.230Z,8.20
2022-09-11T09:50:55.408Z,7.70
2022-09-11T09:51:55.549Z,9.40
2022-09-11T09:52:55.720Z,6.80
2022-09-11T09:53:55.899Z,9.50
2022-09-11T09:54:56.079Z,8.60
2022-09-11T09:55:56.239Z,9.20
2022-09-11T09:56:56.409Z,6.50
2022-09-11T09:57:56.599Z,7.10
2022-09-11T09:58:56.770Z,6.40
2022-09-11T09:59:56.951Z,7.00
2022-09-11T10:00:57.110Z,8.60
2022-09-11T10:01:57.424Z,5.50
2022-09-11T10:02:57.460Z,6.00
2022-09-11T10:03:57.651Z,6.60
2022-09-11T10:04:57.830Z,5.60
2022-09-11T10:05:58.023Z,7.50
2022-09-11T10:06:58.191Z,5.40
2022-09-11T10:07:58.383Z,6.30
2022-09-11T10:09:02.794Z,6.40
2022-09-11T10:09:59.739Z,6.50
2022-09-11T10:10:58.897Z,6.30
2022-09-11T10:11:59.060Z,5.50
2022-09-11T10:13:17.504Z,6.10
2022-09-11T10:14:00.381Z,8.70
2022-09-11T10:14:59.572Z,6.50
2022-09-11T10:15:59.788Z,7.60
2022-09-11T10:16:59.902Z,6.50
2022-09-11T10:18:00.089Z,6.90
2022-09-11T10:19:00.262Z,6.30
2022-09-11T10:20:00.463Z,7.10
2022-09-11T10:21:01.592Z,5.70
2022-09-11T10:22:00.804Z,6.20
2022-09-11T10:23:00.983Z,8.90
2022-09-11T10:24:01.165Z,6.40
2022-09-11T10:25:01.333Z,4.80
2022-09-11T10:26:01.494Z,5.70
2022-09-11T10:27:01.654Z,7.10
2022-09-11T10:28:01.833Z,7.70
2022-09-11T10:29:01.999Z,8.10
2022-09-11T10:30:02.181Z,6.10
2022-09-11T10:31:02.408Z,4.80
2022-09-11T10:32:02.597Z,5.30
2022-09-11T10:33:03.699Z,5.90
2022-09-11T10:34:02.874Z,6.20
2022-09-11T10:35:03.059Z,5.60
2022-09-11T10:36:03.250Z,4.80
2022-09-11T10:37:03.395Z,3.90
2022-09-11T10:38:03.585Z,5.40
2022-09-11T10:39:03.754Z,6.10
2022-09-11T10:40:04.007Z,4.10
2022-09-11T10:41:04.075Z,6.00
2022-09-11T10:42:04.247Z,4.00
2022-09-11T10:43:04.406Z,3.20
2022-09-11T10:44:04.577Z,3.80
2022-09-11T10:45:04.757Z,4.00
2022-09-11T10:46:04.988Z,5.20
2022-09-11T10:47:05.094Z,3.70
2022-09-11T10:48:05.257Z,3.20
2022-09-11T10:49:05.431Z,5.60
2022-09-11T10:50:05.608Z,2.70
2022-09-11T10:51:05.767Z,4.40
2022-09-11T10:52:05.936Z,7.10
2022-09-11T10:53:06.105Z,5.00
2022-09-11T10:54:06.278Z,3.70
2022-09-11T10:55:06.458Z,4.70
2022-09-11T10:56:06.616Z,3.80
2022-09-11T10:57:06.842Z,4.50
2022-09-11T10:58:06.950Z,5.30
2022-09-11T10:59:07.109Z,4.50
2022-09-11T11:00:07.289Z,4.60
2022-09-11T11:01:07.484Z,5.10
2022-09-11T11:02:07.624Z,5.60
2022-09-11T11:03:07.788Z,4.50
2022-09-11T11:04:12.110Z,3.40
2022-09-11T11:05:08.151Z,3.70
2022-09-11T11:06:08.308Z,4.50
2022-09-11T11:07:08.482Z,4.20
2022-09-11T11:08:08.660Z,2.90
2022-09-11T11:09:08.840Z,2.80
2022-09-11T11:10:09.030Z,6.30
2022-09-11T11:11:09.178Z,4.60
2022-09-11T11:12:09.362Z,4.30
2022-09-11T11:13:09.532Z,4.10
2022-09-11T11:14:09.718Z,4.00
2022-09-11T11:15:09.912Z,3.20
2022-09-11T11:16:10.072Z,2.00
2022-09-11T11:17:10.231Z,6.00
2022-09-11T11:18:10.412Z,2.80
2022-09-11T11:19:10.595Z,1.40
2022-09-11T11:20:10.807Z,2.80
2022-09-11T11:21:10.941Z,2.20
2022-09-11T11:22:11.122Z,3.20
2022-09-11T11:23:14.585Z,2.40
2022-09-11T11:24:12.512Z,3.70
2022-09-11T11:25:11.671Z,3.40
2022-09-11T11:26:11.863Z,3.40
2022-09-11T11:27:12.043Z,2.70
2022-09-11T11:28:12.223Z,3.70
2022-09-11T11:29:12.402Z,3.70
2022-09-11T11:30:12.645Z,3.30
2022-09-11T11:31:12.759Z,2.50
2022-09-11T11:32:12.900Z,4.10
2022-09-11T11:33:13.073Z,2.30
2022-09-11T11:34:13.266Z,3.00
2022-09-11T11:35:13.406Z,4.10
2022-09-11T11:36:13.578Z,2.70
2022-09-11T11:37:13.753Z,2.20
2022-09-11T11:38:13.904Z,3.10
2022-09-11T11:39:14.074Z,2.10
2022-09-11T11:40:14.297Z,1.90
2022-09-11T11:41:14.385Z,2.90
2022-09-11T11:42:14.574Z,2.40
2022-09-11T11:43:14.742Z,2.50
2022-09-11T11:44:14.926Z,2.20
2022-09-11T11:45:15.064Z,2.20
2022-09-11T11:46:15.288Z,2.50
2022-09-11T11:47:15.416Z,1.70
2022-09-11T11:48:15.606Z,2.60
2022-09-11T11:49:15.804Z,2.50
2022-09-11T11:50:15.953Z,1.20
2022-09-11T11:51:16.126Z,1.80
2022-09-11T11:52:16.316Z,3.70
2022-09-11T11:53:16.501Z,3.50
2022-09-11T11:54:16.696Z,3.80
2022-09-11T11:55:16.853Z,2.50
2022-09-11T11:56:17.027Z,3.60
2022-09-11T11:57:17.208Z,3.00
2022-09-11T11:58:17.397Z,3.30
2022-09-11T11:59:17.597Z,1.40
2022-09-11T12:00:17.767Z,1.50
2022-09-11T12:01:17.959Z,2.50
2022-09-11T12:02:18.189Z,1.60
2022-09-11T12:03:18.384Z,2.90
2022-09-11T12:04:18.498Z,2.30
2022-09-11T12:05:18.648Z,1.90
2022-09-11T12:06:18.828Z,3.10
2022-09-11T12:07:19.008Z,2.10
2022-09-11T12:08:19.197Z,1.60
2022-09-11T12:09:19.385Z,2.40
2022-09-11T12:10:19.532Z,1.60
2022-09-11T12:11:19.722Z,1.60
2022-09-11T12:12:19.895Z,4.30
2022-09-11T12:13:20.049Z,2.00
2022-09-11T12:14:20.242Z,3.20
2022-09-11T12:15:20.389Z,1.70
2022-09-11T12:16:20.575Z,1.50
2022-09-11T12:17:20.719Z,2.30
2022-09-11T12:18:20.906Z,2.20
2022-09-11T12:19:21.059Z,2.80
2022-09-11T12:20:21.250Z,1.70
2022-09-11T12:21:21.420Z,1.90
2022-09-11T12:22:21.611Z,2.40
2022-09-11T12:23:21.760Z,3.50
2022-09-11T12:24:22.000Z,1.00
2022-09-11T12:25:22.132Z,2.40
2022-09-11T12:26:22.358Z,3.10
2022-09-11T12:27:22.471Z,1.90
2022-09-11T12:28:22.661Z,3.00
2022-09-11T12:29:22.852Z,1.30
2022-09-11T12:30:23.005Z,1.80
2022-09-11T12:31:23.202Z,1.00
2022-09-11T12:32:23.362Z,2.00
2022-09-11T12:33:23.532Z,0.70
2022-09-11T12:34:23.742Z,1.30
2022-09-11T12:35:23.872Z,2.70
2022-09-11T12:36:24.052Z,1.60
2022-09-11T12:37:24.222Z,0.80
2022-09-11T12:38:24.404Z,3.80
2022-09-11T12:39:24.623Z,1.30
2022-09-11T12:40:24.763Z,0.90
2022-09-11T12:41:24.943Z,0.90
2022-09-11T12:42:25.113Z,4.20
2022-09-11T12:43:25.294Z,1.60
2022-09-11T12:44:25.496Z,0.90
2022-09-11T12:45:25.714Z,1.30
2022-09-11T12:46:25.832Z,1.30
2022-09-11T12:47:26.005Z,1.30
2022-09-11T12:48:26.209Z,0.70
2022-09-11T12:49:26.386Z,1.00
2022-09-11T12:50:26.535Z,1.10
2022-09-11T12:51:26.716Z,1.10
2022-09-11T12:52:26.895Z,1.50
2022-09-11T12:53:27.086Z,2.90
2022-09-11T12:54:27.275Z,1.10
2022-09-11T12:55:27.433Z,1.20
2022-09-11T12:56:27.620Z,1.70
2022-09-11T12:57:27.798Z,2.10
2022-09-11T12:58:27.980Z,1.80
2022-09-11T12:59:28.178Z,0.70
2022-09-11T13:00:28.345Z,1.20
2022-09-11T13:01:28.626Z,1.80
2022-09-11T13:02:28.758Z,1.40
2022-09-11T13:03:28.906Z,1.30
2022-09-11T13:04:29.056Z,2.20
2022-09-11T13:05:29.227Z,0.90
2022-09-11T13:06:29.366Z,1.30
2022-09-11T13:07:29.547Z,1.10
2022-09-11T13:08:29.737Z,0.90
2022-09-11T13:09:29.917Z,1.80
2022-09-11T13:10:30.106Z,2.80
2022-09-11T13:11:30.289Z,1.90
2022-09-11T13:12:30.468Z,0.80
2022-09-11T13:13:30.665Z,3.10
2022-09-11T13:14:30.807Z,0.80
2022-09-11T13:15:31.103Z,2.00